sensor_id;sensor_type;location;lat;lon;timestamp;P1;durP1;ratioP1;P2;durP2;ratioP2
8104;SDS011;4095;48.942;9.104;2023-10-09T00:00:12;10.90;;;5.67;;
8104;SDS011;4095;48.942;9.104;2023-10-09T00:02:57;13.87;;;6.33;;
8104;SDS011;4095;48.942;9.104;2023-10-09T00:05:32;9.43;;;6.17;;
8104;SDS011;4095;48.942;9.104;2023-10-09T00:08:20;10.47;;;6.27;;
8104;SDS011;4095;48.942;9.104;2023-10-09T00:10:58;12.00;;;6.50;;
8104;SDS011;4095;48.942;9.104;2023-10-09T00:13:42;10.00;;;5.50;;
8104;SDS011;4095;48.942;9.104;2023-10-09T00:16:21;12.47;;;6.13;;
8104;SDS011;4095;48.942;9.104;2023-10-09T00:19:03;11.03;;;6.30;;
8104;SDS011;4095;48.942;9.104;2023-10-09T00:21:44;12.50;;;6.17;;
8104;SDS011;4095;48.942;9.104;2023-10-09T00:24:11;13.37;;;6.23;;
8104;SDS011;4095;48.942;9.104;2023-10-09T00:26:47;11.40;;;6.00;;
8104;SDS011;4095;48.942;9.104;2023-10-09T00:29:13;11.77;;;6.20;;
8104;SDS011;4095;48.942;9.104;2023-10-09T00:32:02;15.00;;;6.83;;
8104;SDS011;4095;48.942;9.104;2023-10-09T00:35:03;10.77;;;5.90;;
8104;SDS011;4095;48.942;9.104;2023-10-09T00:37:47;10.23;;;6.67;;
8104;SDS011;4095;48.942;9.104;2023-10-09T00:40:13;9.17;;;6.37;;
8104;SDS011;4095;48.942;9.104;2023-10-09T00:42:45;10.07;;;5.73;;
8104;SDS011;4095;48.942;9.104;2023-10-09T00:45:12;10.30;;;6.10;;
8104;SDS011;4095;48.942;9.104;2023-10-09T00:47:45;9.60;;;6.20;;
8104;SDS011;4095;48.942;9.104;2023-10-09T00:50:12;12.67;;;6.27;;
8104;SDS011;4095;48.942;9.104;2023-10-09T00:52:41;10.60;;;6.13;;
8104;SDS011;4095;48.942;9.104;2023-10-09T00:55:20;9.33;;;6.80;;
8104;SDS011;4095;48.942;9.104;2023-10-09T00:58:05;12.30;;;5.97;;
8104;SDS011;4095;48.942;9.104;2023-10-09T01:00:38;11.37;;;6.80;;
8104;SDS011;4095;48.942;9.104;2023-10-09T01:03:11;9.20;;;5.93;;
8104;SDS011;4095;48.942;9.104;2023-10-09T01:05:44;12.10;;;6.60;;
8104;SDS011;4095;48.942;9.104;2023-10-09T01:08:22;9.80;;;6.67;;
8104;SDS011;4095;48.942;9.104;2023-10-09T01:10:55;11.40;;;6.43;;
8104;SDS011;4095;48.942;9.104;2023-10-09T01:13:44;14.33;;;6.70;;
8104;SDS011;4095;48.942;9.104;2023-10-09T01:16:11;15.00;;;6.17;;
8104;SDS011;4095;48.942;9.104;2023-10-09T01:18:43;10.90;;;6.03;;
8104;SDS011;4095;48.942;9.104;2023-10-09T01:21:10;11.03;;;5.93;;
8104;SDS011;4095;48.942;9.104;2023-10-09T01:23:40;12.67;;;5.90;;
8104;SDS011;4095;48.942;9.104;2023-10-09T01:26:23;12.20;;;6.27;;
8104;SDS011;4095;48.942;9.104;2023-10-09T01:28:52;13.50;;;6.27;;
8104;SDS011;4095;48.942;9.104;2023-10-09T01:31:23;13.33;;;6.83;;
8104;SDS011;4095;48.942;9.104;2023-10-09T01:33:51;11.03;;;6.33;;
8104;SDS011;4095;48.942;9.104;2023-10-09T01:36:18;13.67;;;6.20;;
8104;SDS011;4095;48.942;9.104;2023-10-09T01:38:56;14.87;;;6.53;;
8104;SDS011;4095;48.942;9.104;2023-10-09T01:41:27;10.70;;;6.70;;
8104;SDS011;4095;48.942;9.104;2023-10-09T01:43:53;12.67;;;6.37;;
8104;SDS011;4095;48.942;9.104;2023-10-09T01:46:25;13.83;;;6.43;;
8104;SDS011;4095;48.942;9.104;2023-10-09T01:48:51;13.47;;;6.17;;
8104;SDS011;4095;48.942;9.104;2023-10-09T01:51:18;10.93;;;6.50;;
8104;SDS011;4095;48.942;9.104;2023-10-09T01:53:45;10.10;;;5.80;;
8104;SDS011;4095;48.942;9.104;2023-10-09T01:56:19;9.67;;;6.17;;
8104;SDS011;4095;48.942;9.104;2023-10-09T01:58:45;9.90;;;6.27;;
8104;SDS011;4095;48.942;9.104;2023-10-09T02:01:12;11.87;;;6.30;;
8104;SDS011;4095;48.942;9.104;2023-10-09T02:03:38;13.37;;;6.40;;
8104;SDS011;4095;48.942;9.104;2023-10-09T02:06:06;11.77;;;6.13;;
8104;SDS011;4095;48.942;9.104;2023-10-09T02:08:50;11.70;;;6.63;;
8104;SDS011;4095;48.942;9.104;2023-10-09T02:11:16;12.67;;;6.63;;
8104;SDS011;4095;48.942;9.104;2023-10-09T02:13:49;10.73;;;6.03;;
8104;SDS011;4095;48.942;9.104;2023-10-09T02:16:20;10.37;;;5.47;;
8104;SDS011;4095;48.942;9.104;2023-10-09T02:18:53;11.93;;;6.30;;
8104;SDS011;4095;48.942;9.104;2023-10-09T02:21:21;10.23;;;5.63;;
8104;SDS011;4095;48.942;9.104;2023-10-09T02:24:02;10.47;;;6.07;;
8104;SDS011;4095;48.942;9.104;2023-10-09T02:26:34;12.37;;;6.27;;
8104;SDS011;4095;48.942;9.104;2023-10-09T02:29:03;8.60;;;5.40;;
8104;SDS011;4095;48.942;9.104;2023-10-09T02:31:38;15.77;;;6.57;;
8104;SDS011;4095;48.942;9.104;2023-10-09T02:34:16;10.53;;;5.80;;
8104;SDS011;4095;48.942;9.104;2023-10-09T02:36:46;10.80;;;6.10;;
8104;SDS011;4095;48.942;9.104;2023-10-09T02:39:22;14.10;;;6.40;;
8104;SDS011;4095;48.942;9.104;2023-10-09T02:41:51;12.03;;;5.97;;
8104;SDS011;4095;48.942;9.104;2023-10-09T02:44:26;11.00;;;5.80;;
8104;SDS011;4095;48.942;9.104;2023-10-09T02:46:59;12.10;;;6.10;;
8104;SDS011;4095;48.942;9.104;2023-10-09T02:49:30;12.63;;;6.10;;
8104;SDS011;4095;48.942;9.104;2023-10-09T02:51:55;8.87;;;6.27;;
8104;SDS011;4095;48.942;9.104;2023-10-09T02:54:21;14.07;;;6.97;;
8104;SDS011;4095;48.942;9.104;2023-10-09T02:56:47;13.13;;;6.50;;
8104;SDS011;4095;48.942;9.104;2023-10-09T02:59:22;13.30;;;6.77;;
8104;SDS011;4095;48.942;9.104;2023-10-09T03:01:48;13.93;;;6.93;;
8104;SDS011;4095;48.942;9.104;2023-10-09T03:04:17;11.63;;;6.13;;
8104;SDS011;4095;48.942;9.104;2023-10-09T03:06:44;11.63;;;6.33;;
8104;SDS011;4095;48.942;9.104;2023-10-09T03:09:16;11.73;;;6.20;;
8104;SDS011;4095;48.942;9.104;2023-10-09T03:11:44;13.70;;;5.77;;
8104;SDS011;4095;48.942;9.104;2023-10-09T03:14:18;11.10;;;6.10;;
8104;SDS011;4095;48.942;9.104;2023-10-09T03:16:50;10.43;;;5.93;;
8104;SDS011;4095;48.942;9.104;2023-10-09T03:19:15;11.67;;;6.77;;
8104;SDS011;4095;48.942;9.104;2023-10-09T03:21:41;13.90;;;6.40;;
8104;SDS011;4095;48.942;9.104;2023-10-09T03:24:07;13.10;;;6.77;;
8104;SDS011;4095;48.942;9.104;2023-10-09T03:26:34;8.83;;;5.70;;
8104;SDS011;4095;48.942;9.104;2023-10-09T03:29:00;10.73;;;6.03;;
8104;SDS011;4095;48.942;9.104;2023-10-09T03:31:27;13.70;;;7.47;;
8104;SDS011;4095;48.942;9.104;2023-10-09T03:33:55;12.47;;;6.17;;
8104;SDS011;4095;48.942;9.104;2023-10-09T03:36:21;13.27;;;5.97;;
8104;SDS011;4095;48.942;9.104;2023-10-09T03:38:47;12.40;;;6.40;;
8104;SDS011;4095;48.942;9.104;2023-10-09T03:41:13;11.07;;;6.07;;
8104;SDS011;4095;48.942;9.104;2023-10-09T03:43:39;12.43;;;5.97;;
8104;SDS011;4095;48.942;9.104;2023-10-09T03:46:09;10.97;;;5.80;;
8104;SDS011;4095;48.942;9.104;2023-10-09T03:48:52;13.20;;;6.83;;
8104;SDS011;4095;48.942;9.104;2023-10-09T03:51:21;10.77;;;6.40;;
8104;SDS011;4095;48.942;9.104;2023-10-09T03:53:50;14.23;;;6.40;;
8104;SDS011;4095;48.942;9.104;2023-10-09T03:56:19;13.33;;;6.63;;
8104;SDS011;4095;48.942;9.104;2023-10-09T03:58:49;13.83;;;6.60;;
8104;SDS011;4095;48.942;9.104;2023-10-09T04:01:17;11.90;;;6.67;;
8104;SDS011;4095;48.942;9.104;2023-10-09T04:03:53;13.67;;;6.53;;
8104;SDS011;4095;48.942;9.104;2023-10-09T04:06:25;13.03;;;6.97;;
8104;SDS011;4095;48.942;9.104;2023-10-09T04:08:59;14.40;;;7.80;;
8104;SDS011;4095;48.942;9.104;2023-10-09T04:11:38;16.70;;;9.27;;
8104;SDS011;4095;48.942;9.104;2023-10-09T04:14:08;12.90;;;7.50;;
8104;SDS011;4095;48.942;9.104;2023-10-09T04:16:38;15.77;;;7.73;;
8104;SDS011;4095;48.942;9.104;2023-10-09T04:19:16;11.37;;;7.20;;
8104;SDS011;4095;48.942;9.104;2023-10-09T04:21:47;9.90;;;6.80;;
8104;SDS011;4095;48.942;9.104;2023-10-09T04:24:13;11.53;;;7.23;;
8104;SDS011;4095;48.942;9.104;2023-10-09T04:26:45;11.97;;;6.97;;
8104;SDS011;4095;48.942;9.104;2023-10-09T04:29:11;11.63;;;7.30;;
8104;SDS011;4095;48.942;9.104;2023-10-09T04:31:51;10.20;;;7.03;;
8104;SDS011;4095;48.942;9.104;2023-10-09T04:34:19;13.03;;;7.00;;
8104;SDS011;4095;48.942;9.104;2023-10-09T04:36:50;11.47;;;6.67;;
8104;SDS011;4095;48.942;9.104;2023-10-09T04:39:25;12.43;;;7.17;;
8104;SDS011;4095;48.942;9.104;2023-10-09T04:41:57;13.90;;;6.60;;
8104;SDS011;4095;48.942;9.104;2023-10-09T04:44:42;12.00;;;6.67;;
8104;SDS011;4095;48.942;9.104;2023-10-09T04:47:37;10.87;;;6.63;;
8104;SDS011;4095;48.942;9.104;2023-10-09T04:50:23;11.80;;;7.10;;
8104;SDS011;4095;48.942;9.104;2023-10-09T04:52:55;11.23;;;6.20;;
8104;SDS011;4095;48.942;9.104;2023-10-09T04:55:29;12.83;;;6.80;;
8104;SDS011;4095;48.942;9.104;2023-10-09T04:58:03;13.63;;;6.57;;
8104;SDS011;4095;48.942;9.104;2023-10-09T05:00:48;10.60;;;5.93;;
8104;SDS011;4095;48.942;9.104;2023-10-09T05:03:29;12.73;;;7.27;;
8104;SDS011;4095;48.942;9.104;2023-10-09T05:06:08;12.43;;;6.90;;
8104;SDS011;4095;48.942;9.104;2023-10-09T05:08:49;9.73;;;6.40;;
8104;SDS011;4095;48.942;9.104;2023-10-09T05:11:21;14.50;;;7.37;;
8104;SDS011;4095;48.942;9.104;2023-10-09T05:14:00;13.33;;;6.57;;
8104;SDS011;4095;48.942;9.104;2023-10-09T05:16:38;14.13;;;7.70;;
8104;SDS011;4095;48.942;9.104;2023-10-09T05:19:34;13.10;;;6.93;;
8104;SDS011;4095;48.942;9.104;2023-10-09T05:22:19;12.53;;;6.33;;
8104;SDS011;4095;48.942;9.104;2023-10-09T05:24:55;12.07;;;6.30;;
8104;SDS011;4095;48.942;9.104;2023-10-09T05:27:22;13.00;;;6.50;;
8104;SDS011;4095;48.942;9.104;2023-10-09T05:30:07;10.77;;;6.53;;
8104;SDS011;4095;48.942;9.104;2023-10-09T05:32:55;13.13;;;6.63;;
8104;SDS011;4095;48.942;9.104;2023-10-09T05:35:44;11.17;;;6.47;;
8104;SDS011;4095;48.942;9.104;2023-10-09T05:38:29;15.87;;;6.50;;
8104;SDS011;4095;48.942;9.104;2023-10-09T05:40:56;10.90;;;6.50;;
8104;SDS011;4095;48.942;9.104;2023-10-09T05:43:42;13.50;;;6.77;;
8104;SDS011;4095;48.942;9.104;2023-10-09T05:46:26;14.17;;;6.27;;
8104;SDS011;4095;48.942;9.104;2023-10-09T05:49:00;12.23;;;6.37;;
8104;SDS011;4095;48.942;9.104;2023-10-09T05:51:34;13.57;;;6.37;;
8104;SDS011;4095;48.942;9.104;2023-10-09T05:54:10;13.27;;;6.70;;
8104;SDS011;4095;48.942;9.104;2023-10-09T05:56:59;13.00;;;6.80;;
8104;SDS011;4095;48.942;9.104;2023-10-09T05:59:44;14.60;;;6.30;;
8104;SDS011;4095;48.942;9.104;2023-10-09T06:02:28;11.87;;;6.27;;
8104;SDS011;4095;48.942;9.104;2023-10-09T06:05:29;14.00;;;6.37;;
8104;SDS011;4095;48.942;9.104;2023-10-09T06:08:07;12.13;;;6.57;;
8104;SDS011;4095;48.942;9.104;2023-10-09T06:10:37;15.07;;;6.87;;
8104;SDS011;4095;48.942;9.104;2023-10-09T06:13:06;12.40;;;6.77;;
8104;SDS011;4095;48.942;9.104;2023-10-09T06:15:38;10.00;;;6.37;;
8104;SDS011;4095;48.942;9.104;2023-10-09T06:18:13;13.13;;;6.23;;
8104;SDS011;4095;48.942;9.104;2023-10-09T06:20:57;14.20;;;6.63;;
8104;SDS011;4095;48.942;9.104;2023-10-09T06:23:33;13.97;;;6.50;;
8104;SDS011;4095;48.942;9.104;2023-10-09T06:26:17;12.77;;;6.50;;
8104;SDS011;4095;48.942;9.104;2023-10-09T06:28:49;15.20;;;6.43;;
8104;SDS011;4095;48.942;9.104;2023-10-09T06:31:35;13.83;;;6.47;;
8104;SDS011;4095;48.942;9.104;2023-10-09T06:34:19;13.03;;;6.60;;
8104;SDS011;4095;48.942;9.104;2023-10-09T06:36:47;11.90;;;6.47;;
8104;SDS011;4095;48.942;9.104;2023-10-09T06:39:18;12.20;;;6.70;;
8104;SDS011;4095;48.942;9.104;2023-10-09T06:42:02;15.10;;;6.50;;
8104;SDS011;4095;48.942;9.104;2023-10-09T06:44:41;11.67;;;5.80;;
8104;SDS011;4095;48.942;9.104;2023-10-09T06:47:18;14.77;;;6.73;;
8104;SDS011;4095;48.942;9.104;2023-10-09T06:49:49;12.03;;;6.70;;
8104;SDS011;4095;48.942;9.104;2023-10-09T06:52:34;12.00;;;6.77;;
8104;SDS011;4095;48.942;9.104;2023-10-09T06:55:18;13.67;;;6.50;;
8104;SDS011;4095;48.942;9.104;2023-10-09T06:57:57;13.00;;;6.83;;
8104;SDS011;4095;48.942;9.104;2023-10-09T07:00:26;12.13;;;6.33;;
8104;SDS011;4095;48.942;9.104;2023-10-09T07:03:13;12.70;;;7.13;;
8104;SDS011;4095;48.942;9.104;2023-10-09T07:05:39;10.83;;;6.53;;
8104;SDS011;4095;48.942;9.104;2023-10-09T07:08:30;11.53;;;6.43;;
8104;SDS011;4095;48.942;9.104;2023-10-09T07:11:02;11.43;;;7.23;;
8104;SDS011;4095;48.942;9.104;2023-10-09T07:13:47;12.70;;;7.17;;
8104;SDS011;4095;48.942;9.104;2023-10-09T07:16:22;12.07;;;6.53;;
8104;SDS011;4095;48.942;9.104;2023-10-09T07:19:03;15.47;;;7.13;;
8104;SDS011;4095;48.942;9.104;2023-10-09T07:21:44;15.80;;;6.90;;
8104;SDS011;4095;48.942;9.104;2023-10-09T07:24:19;11.53;;;7.10;;
8104;SDS011;4095;48.942;9.104;2023-10-09T07:27:03;15.60;;;7.67;;
8104;SDS011;4095;48.942;9.104;2023-10-09T07:29:33;14.07;;;6.93;;
8104;SDS011;4095;48.942;9.104;2023-10-09T07:32:12;13.73;;;7.10;;
8104;SDS011;4095;48.942;9.104;2023-10-09T07:34:47;10.30;;;5.83;;
8104;SDS011;4095;48.942;9.104;2023-10-09T07:37:23;17.33;;;6.27;;
8104;SDS011;4095;48.942;9.104;2023-10-09T07:39:52;12.83;;;6.17;;
8104;SDS011;4095;48.942;9.104;2023-10-09T07:42:24;11.83;;;6.67;;
8104;SDS011;4095;48.942;9.104;2023-10-09T07:45:05;14.63;;;7.03;;
8104;SDS011;4095;48.942;9.104;2023-10-09T07:47:57;11.97;;;6.47;;
8104;SDS011;4095;48.942;9.104;2023-10-09T07:50:35;13.30;;;7.00;;
8104;SDS011;4095;48.942;9.104;2023-10-09T07:53:09;14.90;;;6.80;;
8104;SDS011;4095;48.942;9.104;2023-10-09T07:55:43;15.77;;;7.30;;
8104;SDS011;4095;48.942;9.104;2023-10-09T07:58:23;16.87;;;6.90;;
8104;SDS011;4095;48.942;9.104;2023-10-09T08:00:56;13.87;;;7.00;;
8104;SDS011;4095;48.942;9.104;2023-10-09T08:03:25;16.30;;;6.90;;
8104;SDS011;4095;48.942;9.104;2023-10-09T08:05:51;13.00;;;7.13;;
8104;SDS011;4095;48.942;9.104;2023-10-09T08:08:19;13.33;;;7.80;;
8104;SDS011;4095;48.942;9.104;2023-10-09T08:10:54;18.57;;;8.47;;
8104;SDS011;4095;48.942;9.104;2023-10-09T08:13:38;14.83;;;7.40;;
8104;SDS011;4095;48.942;9.104;2023-10-09T08:16:23;12.77;;;7.73;;
8104;SDS011;4095;48.942;9.104;2023-10-09T08:18:49;16.43;;;7.53;;
8104;SDS011;4095;48.942;9.104;2023-10-09T08:21:19;13.40;;;7.50;;
8104;SDS011;4095;48.942;9.104;2023-10-09T08:24:03;15.30;;;8.07;;
8104;SDS011;4095;48.942;9.104;2023-10-09T08:26:29;15.37;;;7.83;;
8104;SDS011;4095;48.942;9.104;2023-10-09T08:28:57;15.80;;;8.33;;
8104;SDS011;4095;48.942;9.104;2023-10-09T08:31:42;13.13;;;7.80;;
8104;SDS011;4095;48.942;9.104;2023-10-09T08:34:14;15.13;;;8.03;;
8104;SDS011;4095;48.942;9.104;2023-10-09T08:36:52;14.87;;;7.70;;
8104;SDS011;4095;48.942;9.104;2023-10-09T08:39:21;11.67;;;7.67;;
8104;SDS011;4095;48.942;9.104;2023-10-09T08:41:53;12.33;;;8.07;;
8104;SDS011;4095;48.942;9.104;2023-10-09T08:44:23;17.60;;;8.63;;
8104;SDS011;4095;48.942;9.104;2023-10-09T08:46:51;16.50;;;7.40;;
8104;SDS011;4095;48.942;9.104;2023-10-09T08:49:19;14.77;;;7.70;;
8104;SDS011;4095;48.942;9.104;2023-10-09T08:51:46;16.93;;;8.17;;
8104;SDS011;4095;48.942;9.104;2023-10-09T08:54:13;14.30;;;7.90;;
8104;SDS011;4095;48.942;9.104;2023-10-09T08:56:40;14.67;;;8.37;;
8104;SDS011;4095;48.942;9.104;2023-10-09T08:59:14;14.87;;;8.30;;
8104;SDS011;4095;48.942;9.104;2023-10-09T09:01:43;16.97;;;7.90;;
8104;SDS011;4095;48.942;9.104;2023-10-09T09:04:09;14.67;;;7.50;;
8104;SDS011;4095;48.942;9.104;2023-10-09T09:06:39;12.83;;;7.50;;
8104;SDS011;4095;48.942;9.104;2023-10-09T09:09:12;14.73;;;7.47;;
8104;SDS011;4095;48.942;9.104;2023-10-09T09:11:41;20.23;;;7.63;;
8104;SDS011;4095;48.942;9.104;2023-10-09T09:14:17;13.00;;;7.37;;
8104;SDS011;4095;48.942;9.104;2023-10-09T09:16:47;14.80;;;8.03;;
8104;SDS011;4095;48.942;9.104;2023-10-09T09:19:17;14.60;;;7.60;;
8104;SDS011;4095;48.942;9.104;2023-10-09T09:21:47;16.83;;;7.60;;
8104;SDS011;4095;48.942;9.104;2023-10-09T09:24:20;16.17;;;7.53;;
8104;SDS011;4095;48.942;9.104;2023-10-09T09:26:46;20.13;;;8.37;;
8104;SDS011;4095;48.942;9.104;2023-10-09T09:29:23;20.73;;;8.47;;
8104;SDS011;4095;48.942;9.104;2023-10-09T09:32:03;20.50;;;8.63;;
8104;SDS011;4095;48.942;9.104;2023-10-09T09:37:20;16.47;;;8.00;;
8104;SDS011;4095;48.942;9.104;2023-10-09T09:39:53;12.50;;;7.07;;
8104;SDS011;4095;48.942;9.104;2023-10-09T09:42:20;15.33;;;7.40;;
8104;SDS011;4095;48.942;9.104;2023-10-09T09:44:52;13.83;;;7.70;;
8104;SDS011;4095;48.942;9.104;2023-10-09T09:47:17;16.30;;;7.97;;
8104;SDS011;4095;48.942;9.104;2023-10-09T09:49:56;17.47;;;8.33;;
8104;SDS011;4095;48.942;9.104;2023-10-09T09:52:26;16.10;;;8.63;;
8104;SDS011;4095;48.942;9.104;2023-10-09T09:54:53;17.30;;;8.90;;
8104;SDS011;4095;48.942;9.104;2023-10-09T09:57:19;19.37;;;8.50;;
8104;SDS011;4095;48.942;9.104;2023-10-09T09:59:51;21.43;;;8.37;;
8104;SDS011;4095;48.942;9.104;2023-10-09T10:02:28;18.20;;;8.40;;
8104;SDS011;4095;48.942;9.104;2023-10-09T10:04:59;15.27;;;8.10;;
8104;SDS011;4095;48.942;9.104;2023-10-09T10:07:31;15.23;;;8.10;;
8104;SDS011;4095;48.942;9.104;2023-10-09T10:10:33;12.70;;;7.33;;
8104;SDS011;4095;48.942;9.104;2023-10-09T10:18:58;16.97;;;7.63;;
8104;SDS011;4095;48.942;9.104;2023-10-09T10:21:48;16.00;;;6.73;;
8104;SDS011;4095;48.942;9.104;2023-10-09T10:29:43;18.00;;;7.10;;
8104;SDS011;4095;48.942;9.104;2023-10-09T10:32:11;17.43;;;6.83;;
8104;SDS011;4095;48.942;9.104;2023-10-09T10:34:55;16.30;;;6.90;;
8104;SDS011;4095;48.942;9.104;2023-10-09T10:37:42;17.13;;;6.70;;
8104;SDS011;4095;48.942;9.104;2023-10-09T10:40:22;18.97;;;6.43;;
8104;SDS011;4095;48.942;9.104;2023-10-09T10:43:03;15.03;;;6.20;;
8104;SDS011;4095;48.942;9.104;2023-10-09T10:45:39;18.13;;;6.33;;
8104;SDS011;4095;48.942;9.104;2023-10-09T10:48:11;16.03;;;6.13;;
8104;SDS011;4095;48.942;9.104;2023-10-09T10:51:02;14.07;;;6.63;;
8104;SDS011;4095;48.942;9.104;2023-10-09T10:53:31;15.53;;;6.80;;
8104;SDS011;4095;48.942;9.104;2023-10-09T10:56:12;14.53;;;6.70;;
8104;SDS011;4095;48.942;9.104;2023-10-09T10:58:41;14.40;;;6.93;;
8104;SDS011;4095;48.942;9.104;2023-10-09T11:01:34;16.33;;;6.80;;
8104;SDS011;4095;48.942;9.104;2023-10-09T11:04:18;17.77;;;8.40;;
8104;SDS011;4095;48.942;9.104;2023-10-09T11:06:54;15.35;;;6.90;;
8104;SDS011;4095;48.942;9.104;2023-10-09T11:09:56;22.67;;;6.43;;
8104;SDS011;4095;48.942;9.104;2023-10-09T11:15:08;15.88;;;5.55;;
8104;SDS011;4095;48.942;9.104;2023-10-09T11:20:35;17.20;;;6.10;;
8104;SDS011;4095;48.942;9.104;2023-10-09T11:23:18;17.77;;;5.45;;
8104;SDS011;4095;48.942;9.104;2023-10-09T11:25:54;15.32;;;5.25;;
8104;SDS011;4095;48.942;9.104;2023-10-09T11:28:40;14.88;;;5.32;;
8104;SDS011;4095;48.942;9.104;2023-10-09T11:31:14;17.45;;;5.55;;
8104;SDS011;4095;48.942;9.104;2023-10-09T11:33:46;16.45;;;5.78;;
8104;SDS011;4095;48.942;9.104;2023-10-09T11:36:14;15.32;;;6.00;;
8104;SDS011;4095;48.942;9.104;2023-10-09T11:38:41;12.43;;;5.05;;
8104;SDS011;4095;48.942;9.104;2023-10-09T11:41:14;13.43;;;5.53;;
8104;SDS011;4095;48.942;9.104;2023-10-09T11:43:50;13.33;;;5.70;;
8104;SDS011;4095;48.942;9.104;2023-10-09T11:46:18;17.63;;;5.30;;
8104;SDS011;4095;48.942;9.104;2023-10-09T11:49:04;14.37;;;4.97;;
8104;SDS011;4095;48.942;9.104;2023-10-09T11:51:45;11.70;;;5.57;;
8104;SDS011;4095;48.942;9.104;2023-10-09T11:54:33;18.80;;;5.87;;
8104;SDS011;4095;48.942;9.104;2023-10-09T11:57:00;13.33;;;5.53;;
8104;SDS011;4095;48.942;9.104;2023-10-09T11:59:32;20.73;;;5.63;;
8104;SDS011;4095;48.942;9.104;2023-10-09T12:02:11;15.00;;;5.10;;
8104;SDS011;4095;48.942;9.104;2023-10-09T12:04:38;18.90;;;5.43;;
8104;SDS011;4095;48.942;9.104;2023-10-09T12:07:07;16.57;;;5.87;;
8104;SDS011;4095;48.942;9.104;2023-10-09T12:09:35;17.93;;;5.67;;
8104;SDS011;4095;48.942;9.104;2023-10-09T12:12:02;18.53;;;5.80;;
8104;SDS011;4095;48.942;9.104;2023-10-09T12:14:28;14.83;;;6.13;;
8104;SDS011;4095;48.942;9.104;2023-10-09T12:16:58;16.70;;;5.87;;
8104;SDS011;4095;48.942;9.104;2023-10-09T12:19:30;12.67;;;5.33;;
8104;SDS011;4095;48.942;9.104;2023-10-09T12:22:02;11.18;;;4.85;;
8104;SDS011;4095;48.942;9.104;2023-10-09T12:24:30;21.58;;;6.07;;
8104;SDS011;4095;48.942;9.104;2023-10-09T12:26:56;15.50;;;5.22;;
8104;SDS011;4095;48.942;9.104;2023-10-09T12:29:22;13.50;;;5.05;;
8104;SDS011;4095;48.942;9.104;2023-10-09T12:31:49;10.32;;;5.03;;
8104;SDS011;4095;48.942;9.104;2023-10-09T12:34:23;14.00;;;5.28;;
8104;SDS011;4095;48.942;9.104;2023-10-09T12:36:51;11.50;;;4.13;;
8104;SDS011;4095;48.942;9.104;2023-10-09T12:39:26;12.82;;;4.95;;
8104;SDS011;4095;48.942;9.104;2023-10-09T12:41:58;15.25;;;5.35;;
8104;SDS011;4095;48.942;9.104;2023-10-09T12:44:31;13.82;;;5.13;;
8104;SDS011;4095;48.942;9.104;2023-10-09T12:47:07;12.18;;;4.85;;
8104;SDS011;4095;48.942;9.104;2023-10-09T12:49:36;13.48;;;4.80;;
8104;SDS011;4095;48.942;9.104;2023-10-09T12:52:06;12.13;;;4.53;;
8104;SDS011;4095;48.942;9.104;2023-10-09T12:54:40;8.88;;;4.18;;
8104;SDS011;4095;48.942;9.104;2023-10-09T12:57:07;12.98;;;5.00;;
8104;SDS011;4095;48.942;9.104;2023-10-09T12:59:38;10.77;;;4.60;;
8104;SDS011;4095;48.942;9.104;2023-10-09T13:02:11;10.75;;;4.68;;
8104;SDS011;4095;48.942;9.104;2023-10-09T13:04:38;14.88;;;4.85;;
8104;SDS011;4095;48.942;9.104;2023-10-09T13:07:07;12.65;;;4.85;;
8104;SDS011;4095;48.942;9.104;2023-10-09T13:09:33;10.15;;;4.55;;
8104;SDS011;4095;48.942;9.104;2023-10-09T13:12:07;13.35;;;4.57;;
8104;SDS011;4095;48.942;9.104;2023-10-09T13:14:34;14.10;;;4.88;;
8104;SDS011;4095;48.942;9.104;2023-10-09T13:17:00;14.07;;;4.38;;
8104;SDS011;4095;48.942;9.104;2023-10-09T13:19:33;9.38;;;4.40;;
8104;SDS011;4095;48.942;9.104;2023-10-09T13:21:59;11.77;;;4.53;;
8104;SDS011;4095;48.942;9.104;2023-10-09T13:24:28;11.15;;;4.75;;
8104;SDS011;4095;48.942;9.104;2023-10-09T13:26:55;14.35;;;5.38;;
8104;SDS011;4095;48.942;9.104;2023-10-09T13:29:23;13.23;;;4.57;;
8104;SDS011;4095;48.942;9.104;2023-10-09T13:31:49;13.55;;;5.40;;
8104;SDS011;4095;48.942;9.104;2023-10-09T13:34:22;12.50;;;5.47;;
8104;SDS011;4095;48.942;9.104;2023-10-09T13:36:52;8.73;;;4.95;;
8104;SDS011;4095;48.942;9.104;2023-10-09T13:39:19;12.90;;;5.45;;
8104;SDS011;4095;48.942;9.104;2023-10-09T13:41:49;10.90;;;5.28;;
8104;SDS011;4095;48.942;9.104;2023-10-09T13:44:35;15.40;;;5.43;;
8104;SDS011;4095;48.942;9.104;2023-10-09T13:47:05;13.63;;;5.70;;
8104;SDS011;4095;48.942;9.104;2023-10-09T13:49:31;10.93;;;5.28;;
8104;SDS011;4095;48.942;9.104;2023-10-09T13:52:01;12.65;;;5.50;;
8104;SDS011;4095;48.942;9.104;2023-10-09T13:54:27;11.52;;;5.72;;
8104;SDS011;4095;48.942;9.104;2023-10-09T13:57:04;13.32;;;5.88;;
8104;SDS011;4095;48.942;9.104;2023-10-09T13:59:30;10.80;;;5.80;;
8104;SDS011;4095;48.942;9.104;2023-10-09T14:02:01;15.10;;;6.60;;
8104;SDS011;4095;48.942;9.104;2023-10-09T14:04:27;13.85;;;5.97;;
8104;SDS011;4095;48.942;9.104;2023-10-09T14:06:53;13.85;;;5.80;;
8104;SDS011;4095;48.942;9.104;2023-10-09T14:09:23;13.98;;;6.15;;
8104;SDS011;4095;48.942;9.104;2023-10-09T14:12:10;13.23;;;5.88;;
8104;SDS011;4095;48.942;9.104;2023-10-09T14:14:40;12.02;;;5.70;;
8104;SDS011;4095;48.942;9.104;2023-10-09T14:17:12;11.80;;;6.25;;
8104;SDS011;4095;48.942;9.104;2023-10-09T14:22:06;11.93;;;5.75;;
8104;SDS011;4095;48.942;9.104;2023-10-09T14:24:32;11.60;;;5.75;;
8104;SDS011;4095;48.942;9.104;2023-10-09T14:26:59;11.15;;;5.57;;
8104;SDS011;4095;48.942;9.104;2023-10-09T14:29:29;10.82;;;6.03;;
8104;SDS011;4095;48.942;9.104;2023-10-09T14:31:56;11.77;;;6.05;;
8104;SDS011;4095;48.942;9.104;2023-10-09T14:34:28;11.10;;;6.07;;
8104;SDS011;4095;48.942;9.104;2023-10-09T14:37:00;11.60;;;6.28;;
8104;SDS011;4095;48.942;9.104;2023-10-09T14:39:26;11.70;;;6.35;;
8104;SDS011;4095;48.942;9.104;2023-10-09T14:41:53;10.60;;;6.20;;
8104;SDS011;4095;48.942;9.104;2023-10-09T14:44:22;12.35;;;5.88;;
8104;SDS011;4095;48.942;9.104;2023-10-09T14:46:49;13.73;;;6.68;;
8104;SDS011;4095;48.942;9.104;2023-10-09T14:49:15;11.68;;;5.80;;
8104;SDS011;4095;48.942;9.104;2023-10-09T14:51:46;12.32;;;6.13;;
8104;SDS011;4095;48.942;9.104;2023-10-09T14:54:12;10.43;;;5.95;;
8104;SDS011;4095;48.942;9.104;2023-10-09T14:56:40;10.18;;;6.10;;
8104;SDS011;4095;48.942;9.104;2023-10-09T14:59:06;11.27;;;6.25;;
8104;SDS011;4095;48.942;9.104;2023-10-09T15:01:33;10.70;;;5.70;;
8104;SDS011;4095;48.942;9.104;2023-10-09T15:03:58;10.45;;;6.15;;
8104;SDS011;4095;48.942;9.104;2023-10-09T15:06:25;10.77;;;6.50;;
8104;SDS011;4095;48.942;9.104;2023-10-09T15:08:55;12.93;;;6.07;;
8104;SDS011;4095;48.942;9.104;2023-10-09T15:11:23;12.32;;;5.75;;
8104;SDS011;4095;48.942;9.104;2023-10-09T15:13:53;15.40;;;6.65;;
8104;SDS011;4095;48.942;9.104;2023-10-09T15:16:21;10.57;;;5.75;;
8104;SDS011;4095;48.942;9.104;2023-10-09T15:18:47;14.57;;;5.57;;
8104;SDS011;4095;48.942;9.104;2023-10-09T15:21:21;11.60;;;5.70;;
8104;SDS011;4095;48.942;9.104;2023-10-09T15:23:48;10.82;;;6.05;;
8104;SDS011;4095;48.942;9.104;2023-10-09T15:26:19;12.40;;;6.05;;
8104;SDS011;4095;48.942;9.104;2023-10-09T15:28:45;12.82;;;6.13;;
8104;SDS011;4095;48.942;9.104;2023-10-09T15:31:11;12.30;;;6.65;;
8104;SDS011;4095;48.942;9.104;2023-10-09T15:33:38;11.93;;;5.60;;
8104;SDS011;4095;48.942;9.104;2023-10-09T15:36:09;8.45;;;5.47;;
8104;SDS011;4095;48.942;9.104;2023-10-09T15:38:36;14.57;;;5.90;;
8104;SDS011;4095;48.942;9.104;2023-10-09T15:41:02;12.20;;;5.80;;
8104;SDS011;4095;48.942;9.104;2023-10-09T15:43:27;14.30;;;6.20;;
8104;SDS011;4095;48.942;9.104;2023-10-09T15:45:53;13.57;;;6.40;;
8104;SDS011;4095;48.942;9.104;2023-10-09T15:48:19;13.15;;;6.40;;
8104;SDS011;4095;48.942;9.104;2023-10-09T15:50:46;13.57;;;6.07;;
8104;SDS011;4095;48.942;9.104;2023-10-09T15:53:13;12.82;;;6.50;;
8104;SDS011;4095;48.942;9.104;2023-10-09T15:55:42;12.52;;;5.82;;
8104;SDS011;4095;48.942;9.104;2023-10-09T15:58:08;13.98;;;5.85;;
8104;SDS011;4095;48.942;9.104;2023-10-09T16:00:34;12.95;;;6.60;;